Cambridge Bay Airport
CYCB : rendu visible

Aérodrome :











RETROUVEZ-NOUS SUR...

 
LOGIN :

S'inscrire | Disclaimer

   EN    FR    IT 

 









Légende :    VFR   VFR Marginal   IFR   IFR Intensif   IFR Très Intensif
Visi : 
Plafond : 
>= 8 km
>= 3000ft
5 à 8 km
1000 à 3000 ft
1500m à 5 km
500 à 1000 ft
800 à 1500m
200 à 500 ft
< 800m
< 200 ft
Symboles :   Orages  Brouillard  Fortes neiges  Fortes précipitations  Vent > 20 kt






- Altitude de l'aérodrome : 90 ft
- Code IATA : YCB


CYCB - Cambridge Bay

DERNIER METAR :
  • 271300Z 31011KT 15SM OVC017 M04/M06 A3012 RMK SC8 SLP204

METARs EXPIRÉS :
  • 271200Z 31013KT 15SM OVC017 M05/M06 A3011 RMK SC8 SLP202
  • 271100Z 29012KT 15SM OVC020 M06/M07 A3011 RMK SC8 SLP201

TAF TAF CYCB
Valide du 27 à 13h jusqu'au 28 à 01h UTC


271238Z 2713/2801 30013KT P6SM OVC015
TEMPO 2713/2716 P6SM -SN OVC025
FM271800 32010KT P6SM SCT015 OVC025
TEMPO 2718/2801 3SM -SN OVC015
BECMG 2721/2723 34015KT RMK NXT FCST BY 271900Z
FIR CZEG / Amérique du Nord



MET'MAP, la Météo Aéronautique d'un coup d'oeil ! - Copyright ORBIFLY Décembre 2007 - Disclaimer

ORBIFLY MET'MAP TEAM :

Programmation & Développement : Alexandra Zaïnal
Sur une idée originale de : Baudouin d'Aumeries
Assistance à la programmation : Marc-Olivier Méhu
Soutien technique & logistique : Manuel Goepfert

Contact : metmap@orbifly.com




SOURCES & CREDITS :

   NOAA       Earth
Advisory